Time;durP1;ratioP1;P1;durP2;ratioP2;P2;SDS_P1;SDS_P2;PMS_P1;PMS_P2;Temp;Humidity;BMP_temperature;BMP_pressure;BME280_temperature;BME280_humidity;BME280_pressure;Samples;Min_cycle;Max_cycle;Signal;HPM_P1;HPM_P2
2024/01/14 00:00:06;;;;;;;31.40;11.93;;;;;;;-2.66;100.00;98301.38;5089489;28;20213;-78
2024/01/14 00:02:32;;;;;;;30.87;12.30;;;;;;;-2.66;100.00;98298.78;5087281;28;20242;-79
2024/01/14 00:04:59;;;;;;;25.93;10.47;;;;;;;-2.62;100.00;98298.75;5086679;28;20237;-78
2024/01/14 00:07:25;;;;;;;26.17;11.17;;;;;;;-2.64;100.00;98297.06;5075424;28;20221;-79
2024/01/14 00:09:52;;;;;;;31.63;12.30;;;;;;;-2.64;100.00;98297.06;5072501;28;20313;-78
2024/01/14 00:12:19;;;;;;;31.47;11.87;;;;;;;-2.52;100.00;98294.28;5072214;28;20240;-78
2024/01/14 00:14:45;;;;;;;31.10;12.17;;;;;;;-2.49;100.00;98289.03;5072154;28;20221;-79
2024/01/14 00:17:14;;;;;;;26.17;12.07;;;;;;;-2.55;100.00;98283.97;5072071;28;20455;-79
2024/01/14 00:19:40;;;;;;;25.90;12.10;;;;;;;-2.54;100.00;98280.50;5072131;28;20535;-77
2024/01/14 00:22:07;;;;;;;31.87;12.50;;;;;;;-2.51;100.00;98270.94;5071735;28;20229;-77
2024/01/14 00:24:33;;;;;;;21.63;11.27;;;;;;;-2.57;100.00;98270.22;5071997;28;20214;-77
2024/01/14 00:27:00;;;;;;;26.97;12.03;;;;;;;-2.50;100.00;98261.47;5071900;28;20237;-78
2024/01/14 00:29:26;;;;;;;23.63;10.77;;;;;;;-2.52;100.00;98263.22;5071995;28;20674;-78
2024/01/14 00:31:53;;;;;;;28.90;13.27;;;;;;;-2.56;100.00;98261.56;5072135;28;20613;-78
2024/01/14 00:34:20;;;;;;;29.90;12.10;;;;;;;-2.56;100.00;98266.75;5072416;28;20205;-77
2024/01/14 00:36:47;;;;;;;31.53;11.83;;;;;;;-2.48;100.00;98263.16;5071773;28;20715;-78
2024/01/14 00:39:13;;;;;;;27.87;12.57;;;;;;;-2.48;100.00;98251.94;5072087;28;20209;-76
2024/01/14 00:41:40;;;;;;;30.67;11.97;;;;;;;-2.54;100.00;98254.63;5071779;28;20231;-76
2024/01/14 00:44:06;;;;;;;30.70;11.77;;;;;;;-2.48;100.00;98251.94;5071278;28;20666;-77
2024/01/14 00:46:33;;;;;;;29.13;12.73;;;;;;;-2.49;100.00;98239.88;5071850;28;20237;-77
2024/01/14 00:48:59;;;;;;;27.43;12.13;;;;;;;-2.54;100.00;98239.09;5071844;28;20222;-77
2024/01/14 00:51:27;;;;;;;30.10;12.43;;;;;;;-2.53;100.00;98240.81;5071980;28;20226;-77
2024/01/14 00:53:53;;;;;;;30.37;12.97;;;;;;;-2.52;100.00;98221.84;5071654;28;20207;-77
2024/01/14 00:56:20;;;;;;;29.83;11.83;;;;;;;-2.55;100.00;98222.75;5071475;28;20214;-78
2024/01/14 00:58:46;;;;;;;36.37;13.23;;;;;;;-2.46;100.00;98206.22;5071978;28;20591;-77
2024/01/14 01:01:13;;;;;;;29.77;11.83;;;;;;;-2.56;100.00;98202.94;5071366;28;20737;-78
2024/01/14 01:03:40;;;;;;;28.83;11.63;;;;;;;-2.62;100.00;98197.00;5071390;28;20221;-78
2024/01/14 01:06:06;;;;;;;30.50;12.73;;;;;;;-2.73;100.00;98193.72;5071305;28;20235;-78
2024/01/14 01:08:34;;;;;;;33.23;12.90;;;;;;;-2.74;100.00;98205.81;5071791;28;20358;-77
2024/01/14 01:11:01;;;;;;;32.90;13.80;;;;;;;-2.76;100.00;98197.19;5071596;28;20252;-78
2024/01/14 01:13:27;;;;;;;29.27;13.27;;;;;;;-2.75;100.00;98206.66;5071685;28;20210;-78
2024/01/14 01:15:54;;;;;;;29.97;12.43;;;;;;;-2.68;100.00;98197.09;5071129;28;20204;-78
2024/01/14 01:18:20;;;;;;;35.47;12.40;;;;;;;-2.70;100.00;98186.75;5077266;28;20297;-78
2024/01/14 01:20:48;;;;;;;30.27;12.50;;;;;;;-2.64;100.00;98196.16;5078349;28;20306;-78
2024/01/14 01:23:15;;;;;;;33.13;12.53;;;;;;;-2.67;100.00;98196.19;5078166;28;20307;-78
2024/01/14 01:25:43;;;;;;;28.97;12.40;;;;;;;-2.70;100.00;98189.34;5077769;28;20800;-78
2024/01/14 01:28:09;;;;;;;25.80;11.40;;;;;;;-2.64;100.00;98191.84;5078317;28;20517;-78
2024/01/14 01:30:36;;;;;;;33.40;13.77;;;;;;;-2.62;100.00;98179.75;5077913;28;20236;-78
2024/01/14 01:33:02;;;;;;;28.13;13.03;;;;;;;-2.57;100.00;98177.91;5077867;28;20237;-78
2024/01/14 01:35:29;;;;;;;30.27;11.80;;;;;;;-2.66;100.00;98166.88;5078102;28;20213;-78
2024/01/14 01:37:56;;;;;;;30.17;12.23;;;;;;;-2.71;100.00;98168.66;5077779;28;20214;-78
2024/01/14 01:40:22;;;;;;;31.67;12.23;;;;;;;-2.65;100.00;98163.41;5078067;28;20224;-78
2024/01/14 01:42:50;;;;;;;24.93;11.60;;;;;;;-2.70;100.00;98160.06;5077853;28;20244;-78
2024/01/14 01:45:17;;;;;;;30.40;11.57;;;;;;;-2.70;100.00;98154.88;5077408;28;20209;-77
2024/01/14 01:47:46;;;;;;;28.23;12.17;;;;;;;-2.74;100.00;98158.41;5078069;28;20580;-78
2024/01/14 01:50:13;;;;;;;26.97;11.90;;;;;;;-2.70;100.00;98155.72;5077980;28;20234;-78
2024/01/14 01:52:41;;;;;;;35.60;13.37;;;;;;;-2.68;100.00;98153.97;5078151;28;20230;-78
2024/01/14 01:55:09;;;;;;;30.67;13.20;;;;;;;-2.65;100.00;98158.22;5077811;28;20674;-78
2024/01/14 01:57:35;;;;;;;28.07;10.97;;;;;;;-2.66;100.00;98153.94;5077789;28;20592;-78
2024/01/14 02:00:04;;;;;;;31.90;12.73;;;;;;;-2.74;100.00;98148.06;5077422;28;20685;-78
2024/01/14 02:02:32;;;;;;;28.97;11.93;;;;;;;-2.75;100.00;98144.59;5078388;28;20307;-78
2024/01/14 02:04:58;;;;;;;31.30;12.20;;;;;;;-2.76;100.00;98140.31;5078111;28;20211;-78
2024/01/14 02:07:25;;;;;;;27.97;11.77;;;;;;;-2.74;100.00;98129.94;5077986;28;20723;-78
2024/01/14 02:09:52;;;;;;;31.90;12.17;;;;;;;-2.75;100.00;98136.84;5077919;28;20210;-78
2024/01/14 02:12:19;;;;;;;28.10;12.33;;;;;;;-2.77;100.00;98132.56;5077763;28;20708;-78
2024/01/14 02:14:45;;;;;;;29.17;11.50;;;;;;;-2.88;100.00;98134.50;5077757;28;20213;-77
2024/01/14 02:17:13;;;;;;;30.97;12.57;;;;;;;-2.81;100.00;98123.19;5077642;28;20745;-77
2024/01/14 02:19:40;;;;;;;26.93;11.47;;;;;;;-2.76;100.00;98126.53;5077598;28;20221;-77
2024/01/14 02:22:11;;;;;;;31.23;11.60;;;;;;;-2.78;100.00;98120.53;5077880;28;20241;-77
2024/01/14 02:24:40;;;;;;;31.27;12.40;;;;;;;-2.82;100.00;98118.88;5077284;28;20214;-77
2024/01/14 02:27:06;;;;;;;30.40;12.70;;;;;;;-2.83;100.00;98122.31;5076907;28;20731;-78
2024/01/14 02:29:33;;;;;;;32.70;12.93;;;;;;;-2.77;100.00;98117.03;5073972;28;20225;-76
2024/01/14 02:32:00;;;;;;;26.87;11.77;;;;;;;-2.75;100.00;98117.91;5074189;28;20235;-76
2024/01/14 02:34:27;;;;;;;30.10;12.33;;;;;;;-2.81;100.00;98115.41;5074109;28;20215;-77
2024/01/14 02:36:53;;;;;;;26.57;11.77;;;;;;;-2.81;100.00;98110.25;5073886;28;20206;-76
2024/01/14 02:39:19;;;;;;;28.03;12.17;;;;;;;-2.78;100.00;98107.59;5073688;28;20674;-77
2024/01/14 02:41:47;;;;;;;31.03;11.40;;;;;;;-2.77;100.00;98107.56;5074044;28;20225;-77
2024/01/14 02:44:14;;;;;;;27.63;11.40;;;;;;;-2.85;100.00;98108.59;5073898;28;20206;-77
2024/01/14 02:46:42;;;;;;;28.20;12.53;;;;;;;-2.85;100.00;98103.41;5073605;28;20667;-77
2024/01/14 02:49:08;;;;;;;39.80;13.97;;;;;;;-2.77;100.00;98096.38;5073888;28;20267;-79
2024/01/14 02:51:35;;;;;;;28.80;11.87;;;;;;;-2.71;100.00;98101.44;5073720;28;20448;-78
2024/01/14 02:54:02;;;;;;;31.87;12.17;;;;;;;-2.79;100.00;98104.16;5073614;28;20214;-78
2024/01/14 02:56:28;;;;;;;28.20;11.67;;;;;;;-2.89;100.00;98107.78;5074470;28;20204;-78
2024/01/14 02:58:56;;;;;;;27.93;12.00;;;;;;;-2.86;100.00;98097.41;5075114;28;20255;-78
2024/01/14 03:01:23;;;;;;;31.07;12.87;;;;;;;-2.90;100.00;98100.03;5074385;28;20243;-78
2024/01/14 03:03:49;;;;;;;33.30;13.07;;;;;;;-2.89;100.00;98096.59;5074140;28;20220;-78
2024/01/14 03:06:16;;;;;;;30.80;12.20;;;;;;;-2.93;100.00;98100.94;5073521;28;20228;-78
2024/01/14 03:08:42;;;;;;;35.67;14.13;;;;;;;-2.90;100.00;98094.88;5075651;28;20296;-78
2024/01/14 03:11:09;;;;;;;34.83;12.67;;;;;;;-2.94;100.00;98088.91;5076114;28;20221;-78
2024/01/14 03:13:35;;;;;;;35.00;12.53;;;;;;;-2.88;100.00;98093.97;5076086;28;20213;-77
2024/01/14 03:16:05;;;;;;;32.50;13.30;;;;;;;-2.90;100.00;98102.63;5075921;28;20598;-78
2024/01/14 03:18:32;;;;;;;37.50;13.53;;;;;;;-2.90;100.00;98100.03;5075951;28;20286;-78
2024/01/14 03:20:58;;;;;;;29.90;11.67;;;;;;;-2.91;100.00;98096.63;5074675;28;20255;-78
2024/01/14 03:23:25;;;;;;;32.10;11.97;;;;;;;-2.93;100.00;98100.09;5075037;28;20217;-78
2024/01/14 03:25:51;;;;;;;35.57;13.00;;;;;;;-2.90;100.00;98100.03;5075551;28;20217;-77
2024/01/14 03:28:18;;;;;;;32.73;13.67;;;;;;;-2.93;100.00;98100.09;5073535;28;20222;-78
2024/01/14 03:30:45;;;;;;;33.67;12.70;;;;;;;-3.00;100.00;98103.69;5073890;28;20610;-78
2024/01/14 03:33:13;;;;;;;33.80;12.57;;;;;;;-3.16;100.00;98109.97;5073122;28;20231;-78
2024/01/14 03:35:39;;;;;;;35.67;13.33;;;;;;;-3.15;100.00;98104.78;5073907;28;20216;-78
2024/01/14 03:38:06;;;;;;;34.77;13.50;;;;;;;-3.19;100.00;98107.44;5073605;28;20682;-79
2024/01/14 03:40:32;;;;;;;37.43;13.07;;;;;;;-3.11;100.00;98115.91;5073520;28;20583;-79
2024/01/14 03:42:59;;;;;;;34.93;13.27;;;;;;;-3.14;100.00;98100.44;5073432;28;20616;-78
2024/01/14 03:45:25;;;;;;;33.20;13.00;;;;;;;-3.28;100.00;98105.00;5073903;28;20209;-78
2024/01/14 03:47:51;;;;;;;30.93;12.13;;;;;;;-3.27;100.00;98101.53;5073097;28;20233;-78
2024/01/14 03:50:19;;;;;;;32.50;12.93;;;;;;;-3.27;100.00;98098.94;5073005;28;20206;-78
2024/01/14 03:52:46;;;;;;;37.20;12.77;;;;;;;-3.21;100.00;98109.19;5073047;28;20235;-78
2024/01/14 03:55:12;;;;;;;32.90;12.67;;;;;;;-3.30;100.00;98110.16;5073183;28;20219;-78
2024/01/14 03:57:40;;;;;;;31.77;11.87;;;;;;;-3.25;100.00;98102.38;5072989;28;20591;-78
2024/01/14 04:00:08;;;;;;;33.40;12.37;;;;;;;-3.28;100.00;98099.81;5072914;28;20212;-78
2024/01/14 04:02:35;;;;;;;36.10;12.53;;;;;;;-3.28;100.00;98099.81;5072775;28;20240;-78
2024/01/14 04:05:01;;;;;;;28.73;11.77;;;;;;;-3.25;100.00;98100.63;5072704;28;20222;-78
2024/01/14 04:07:29;;;;;;;34.83;12.10;;;;;;;-3.24;100.00;98106.66;5072894;28;20599;-78
2024/01/14 04:09:56;;;;;;;31.67;12.40;;;;;;;-3.19;100.00;98110.03;5072762;28;20206;-78
2024/01/14 04:12:22;;;;;;;31.27;13.43;;;;;;;-3.16;100.00;98109.97;5072704;28;20732;-78
2024/01/14 04:14:49;;;;;;;28.90;12.13;;;;;;;-3.12;100.00;98109.88;5072744;28;20212;-78
2024/01/14 04:17:15;;;;;;;33.03;12.87;;;;;;;-3.16;100.00;98108.25;5072688;28;20209;-78
2024/01/14 04:19:42;;;;;;;34.37;14.27;;;;;;;-3.22;100.00;98104.88;5072827;28;20237;-78
2024/01/14 04:22:08;;;;;;;37.67;13.27;;;;;;;-3.24;100.00;98109.25;5072371;28;20247;-78
2024/01/14 04:24:36;;;;;;;32.83;12.67;;;;;;;-3.10;100.00;98102.13;5072403;28;20682;-78
2024/01/14 04:27:03;;;;;;;28.53;12.77;;;;;;;-3.17;100.00;98110.84;5072116;28;20229;-78
2024/01/14 04:29:29;;;;;;;30.30;12.20;;;;;;;-3.18;100.00;98109.16;5072249;28;20209;-78
2024/01/14 04:31:56;;;;;;;36.80;13.53;;;;;;;-3.26;100.00;98113.56;5072244;28;20607;-77
2024/01/14 04:34:22;;;;;;;36.27;13.13;;;;;;;-3.26;100.00;98110.97;5072160;28;20546;-78
2024/01/14 04:36:49;;;;;;;33.00;12.90;;;;;;;-3.26;100.00;98117.00;5072037;28;20200;-78
2024/01/14 04:39:15;;;;;;;33.53;11.90;;;;;;;-3.21;100.00;98104.00;5072305;28;20219;-78
2024/01/14 04:41:43;;;;;;;31.50;10.90;;;;;;;-3.24;100.00;98114.41;5071813;28;20745;-77
2024/01/14 04:44:10;;;;;;;26.63;11.97;;;;;;;-3.31;100.00;98111.06;5071679;28;20209;-78
2024/01/14 04:46:36;;;;;;;27.90;11.30;;;;;;;-3.39;100.00;98110.31;5071527;28;20701;-77
2024/01/14 04:49:03;;;;;;;28.20;12.37;;;;;;;-3.27;100.00;98106.69;5072384;28;20208;-78
2024/01/14 04:51:29;;;;;;;33.30;11.90;;;;;;;-3.27;100.00;98114.44;5071132;28;20232;-78
2024/01/14 04:53:55;;;;;;;30.80;12.23;;;;;;;-3.39;100.00;98109.47;5071933;28;20226;-78
2024/01/14 04:56:22;;;;;;;30.57;12.10;;;;;;;-3.28;100.00;98111.03;5071511;28;20209;-78
2024/01/14 04:58:50;;;;;;;37.57;13.07;;;;;;;-3.30;100.00;98111.91;5072067;28;20233;-78
2024/01/14 05:01:16;;;;;;;31.70;12.47;;;;;;;-3.26;100.00;98117.00;5071889;28;20254;-78
2024/01/14 05:03:42;;;;;;;24.37;11.43;;;;;;;-3.26;100.00;98111.84;5071752;28;20219;-77
2024/01/14 05:06:10;;;;;;;33.40;12.33;;;;;;;-3.22;100.00;98118.69;5071898;28;20630;-78
2024/01/14 05:08:38;;;;;;;33.03;13.87;;;;;;;-3.18;100.00;98109.97;5071593;28;20236;-78
2024/01/14 05:11:04;;;;;;;32.23;12.60;;;;;;;-3.15;100.00;98114.25;5071858;28;20217;-78
2024/01/14 05:13:31;;;;;;;28.17;10.83;;;;;;;-3.21;100.00;98114.34;5071738;28;20219;-78
2024/01/14 05:15:59;;;;;;;31.53;11.63;;;;;;;-3.22;100.00;98113.50;5071491;28;20672;-78
2024/01/14 05:18:25;;;;;;;28.33;11.27;;;;;;;-3.20;100.00;98111.75;5071704;28;20209;-78
2024/01/14 05:20:52;;;;;;;31.80;13.33;;;;;;;-3.17;100.00;98121.19;5071275;28;20208;-78
2024/01/14 05:23:19;;;;;;;32.23;12.83;;;;;;;-3.16;100.00;98112.56;5071816;28;20565;-78
2024/01/14 05:25:45;;;;;;;30.70;11.97;;;;;;;-3.15;100.00;98115.13;5071078;28;20216;-78
2024/01/14 05:28:12;;;;;;;33.83;13.87;;;;;;;-3.19;100.00;98110.03;5071146;28;20233;-78
2024/01/14 05:30:38;;;;;;;30.30;12.13;;;;;;;-3.15;100.00;98115.13;5071472;28;20206;-78
2024/01/14 05:33:06;;;;;;;33.47;12.93;;;;;;;-3.11;100.00;98108.16;5071571;28;20225;-78
2024/01/14 05:35:33;;;;;;;37.23;15.27;;;;;;;-3.17;100.00;98110.84;5070972;28;20669;-78
2024/01/14 05:37:59;;;;;;;38.53;14.70;;;;;;;-3.13;100.00;98099.59;5071465;28;20653;-78
2024/01/14 05:40:26;;;;;;;39.53;14.53;;;;;;;-3.13;100.00;98105.59;5071258;28;20233;-78
2024/01/14 05:42:52;;;;;;;34.57;13.00;;;;;;;-3.08;100.00;98092.59;5071456;28;20229;-78
2024/01/14 05:45:18;;;;;;;31.80;12.57;;;;;;;-3.11;100.00;98095.25;5071348;28;20464;-77
2024/01/14 05:47:45;;;;;;;37.77;13.50;;;;;;;-3.15;100.00;98094.44;5070982;28;20230;-78
2024/01/14 05:50:13;;;;;;;37.00;13.43;;;;;;;-3.11;100.00;98090.91;5071271;28;20280;-78
2024/01/14 05:52:40;;;;;;;37.50;13.90;;;;;;;-3.05;100.00;98089.97;5070898;28;20232;-78
2024/01/14 05:55:08;;;;;;;37.97;14.23;;;;;;;-3.06;100.00;98083.09;5070902;28;20210;-78
2024/01/14 05:57:34;;;;;;;35.30;13.40;;;;;;;-3.11;100.00;98087.50;5070740;28;20304;-78
2024/01/14 06:00:01;;;;;;;36.90;13.37;;;;;;;-3.05;100.00;98079.63;5071024;28;20214;-78
2024/01/14 06:02:27;;;;;;;37.03;13.83;;;;;;;-2.99;100.00;98084.69;5070975;28;20256;-78
2024/01/14 06:04:54;;;;;;;34.53;15.33;;;;;;;-2.94;100.00;98080.31;5073336;28;20214;-78
2024/01/14 06:07:21;;;;;;;32.67;13.57;;;;;;;-3.00;100.00;98083.00;5074450;28;20230;-78
2024/01/14 06:09:48;;;;;;;37.60;12.97;;;;;;;-3.05;100.00;98079.63;5074121;28;20210;-77
2024/01/14 06:12:19;;;;;;;38.63;14.53;;;;;;;-3.02;100.00;98075.25;5074392;28;20242;-77
2024/01/14 06:14:45;;;;;;;38.23;14.50;;;;;;;-3.05;100.00;98079.63;5074339;28;20220;-79
2024/01/14 06:17:12;;;;;;;37.73;14.43;;;;;;;-2.98;100.00;98076.94;5074109;28;20213;-77
2024/01/14 06:19:38;;;;;;;29.77;13.83;;;;;;;-3.00;100.00;98067.50;5074156;28;20208;-77
2024/01/14 06:22:05;;;;;;;40.10;14.37;;;;;;;-3.03;100.00;98067.53;5073969;28;20239;-79
2024/01/14 06:24:33;;;;;;;35.47;13.90;;;;;;;-3.05;100.00;98069.28;5073844;28;20625;-79
2024/01/14 06:26:59;;;;;;;35.03;17.03;;;;;;;-3.13;100.00;98066.00;5074269;28;20238;-79
2024/01/14 06:29:26;;;;;;;40.20;15.37;;;;;;;-3.14;100.00;98061.69;5074117;28;20224;-79
2024/01/14 06:31:52;;;;;;;34.97;13.17;;;;;;;-3.21;100.00;98060.06;5073954;28;20227;-77
2024/01/14 06:34:19;;;;;;;34.53;14.40;;;;;;;-3.27;100.00;98055.88;5073821;28;20212;-79
2024/01/14 06:36:45;;;;;;;35.07;13.60;;;;;;;-3.26;100.00;98051.53;5074201;28;20209;-79
2024/01/14 06:39:15;;;;;;;37.70;15.17;;;;;;;-3.35;100.00;98049.13;5073783;28;20221;-77
2024/01/14 06:41:42;;;;;;;36.23;14.57;;;;;;;-3.37;100.00;98045.72;5073932;28;20636;-78
2024/01/14 06:44:09;;;;;;;36.00;14.67;;;;;;;-3.35;100.00;98056.88;5073689;28;20223;-77
2024/01/14 06:46:35;;;;;;;37.13;15.73;;;;;;;-3.29;100.00;98046.44;5074237;28;20601;-79
2024/01/14 06:49:02;;;;;;;39.60;14.93;;;;;;;-3.16;100.00;98045.34;5074121;28;20235;-77
2024/01/14 06:51:28;;;;;;;39.07;14.63;;;;;;;-3.11;100.00;98043.56;5074734;28;20225;-78
2024/01/14 06:53:55;;;;;;;39.00;13.07;;;;;;;-3.13;100.00;98029.81;5076566;28;20237;-78
2024/01/14 06:56:21;;;;;;;29.13;11.60;;;;;;;-3.10;100.00;98029.75;5074291;28;20206;-78
2024/01/14 06:58:50;;;;;;;33.80;12.37;;;;;;;-3.12;100.00;98027.19;5074178;28;20213;-78
2024/01/14 07:01:17;;;;;;;27.40;12.03;;;;;;;-3.13;100.00;98015.13;5073551;28;20723;-79
2024/01/14 07:03:44;;;;;;;34.03;13.00;;;;;;;-3.05;100.00;98004.66;5073936;28;20296;-77
2024/01/14 07:06:10;;;;;;;36.17;15.47;;;;;;;-3.03;100.00;98006.34;5073110;28;20216;-80
2024/01/14 07:08:37;;;;;;;34.43;14.03;;;;;;;-3.05;100.00;97991.75;5074613;28;20698;-79
2024/01/14 07:11:05;;;;;;;38.43;14.33;;;;;;;-3.06;100.00;97995.22;5074630;28;20465;-79
2024/01/14 07:13:31;;;;;;;35.00;12.17;;;;;;;-3.10;100.00;97997.00;5074550;28;20217;-78
2024/01/14 07:15:59;;;;;;;35.33;13.23;;;;;;;-3.04;100.00;97993.44;5072848;28;20711;-78
2024/01/14 07:18:26;;;;;;;35.80;12.83;;;;;;;-3.01;100.00;97988.25;5073695;28;20216;-80
2024/01/14 07:20:52;;;;;;;33.67;12.43;;;;;;;-3.05;100.00;97986.56;5072892;28;20209;-77
2024/01/14 07:23:18;;;;;;;34.43;12.80;;;;;;;-3.09;100.00;97993.53;5073171;28;20206;-79
2024/01/14 07:25:45;;;;;;;33.60;12.23;;;;;;;-2.97;100.00;97995.91;5072696;28;20221;-77
2024/01/14 07:28:11;;;;;;;33.10;12.57;;;;;;;-3.02;100.00;97986.50;5072968;28;20597;-79
2024/01/14 07:30:38;;;;;;;29.67;12.70;;;;;;;-3.02;100.00;97991.69;5072996;28;20206;-79
2024/01/14 07:33:06;;;;;;;27.63;11.63;;;;;;;-3.01;100.00;97988.25;5073502;28;20283;-79
2024/01/14 07:35:32;;;;;;;25.17;10.40;;;;;;;-3.03;100.00;97984.81;5072629;28;20712;-78
2024/01/14 07:37:59;;;;;;;31.97;11.50;;;;;;;-3.12;100.00;97970.31;5072634;28;20257;-78
2024/01/14 07:40:25;;;;;;;33.73;12.80;;;;;;;-3.21;100.00;97972.22;5073493;28;20221;-79
2024/01/14 07:42:53;;;;;;;36.43;15.60;;;;;;;-3.26;100.00;97972.31;5073092;28;20225;-78
2024/01/14 07:45:19;;;;;;;31.53;13.73;;;;;;;-3.27;100.00;97967.16;5072554;28;20355;-77
2024/01/14 07:47:46;;;;;;;32.13;11.93;;;;;;;-3.27;100.00;97962.84;5072318;28;20287;-78
2024/01/14 07:50:14;;;;;;;23.10;10.70;;;;;;;-3.27;100.00;97960.28;5073201;28;20220;-78
2024/01/14 07:52:41;;;;;;;24.07;10.13;;;;;;;-3.33;100.00;97964.69;5074224;28;20247;-78
2024/01/14 07:55:07;;;;;;;27.67;11.33;;;;;;;-3.37;100.00;97961.31;5073605;28;20216;-78
2024/01/14 07:57:34;;;;;;;28.67;12.60;;;;;;;-3.39;100.00;97951.88;5073272;28;20210;-79
2024/01/14 08:00:01;;;;;;;30.60;10.80;;;;;;;-3.33;100.00;97954.34;5073814;28;20213;-78
2024/01/14 08:02:27;;;;;;;31.77;12.67;;;;;;;-3.29;100.00;97945.69;5073353;28;20232;-78
2024/01/14 08:04:54;;;;;;;34.37;13.20;;;;;;;-3.32;100.00;97951.75;5074071;28;20209;-79
2024/01/14 08:07:22;;;;;;;28.80;11.27;;;;;;;-3.29;100.00;97950.84;5072052;28;20213;-77
2024/01/14 08:09:48;;;;;;;32.83;12.07;;;;;;;-3.26;100.00;97951.63;5071917;28;20220;-79
2024/01/14 08:12:14;;;;;;;33.37;11.27;;;;;;;-3.25;100.00;97943.00;5071935;28;20229;-77
2024/01/14 08:14:41;;;;;;;29.33;12.23;;;;;;;-3.25;100.00;97944.75;5071982;28;20213;-76
2024/01/14 08:17:07;;;;;;;32.70;11.93;;;;;;;-3.32;100.00;97936.25;5071792;28;20680;-77
2024/01/14 08:19:34;;;;;;;30.70;12.37;;;;;;;-3.36;100.00;97933.75;5072671;28;20236;-77
2024/01/14 08:22:00;;;;;;;32.47;11.57;;;;;;;-3.43;100.00;97938.16;5073838;28;20227;-78
2024/01/14 08:24:28;;;;;;;32.20;14.17;;;;;;;-3.40;100.00;97945.88;5074233;28;20212;-77
2024/01/14 08:26:55;;;;;;;35.37;12.27;;;;;;;-3.41;100.00;97943.31;5072713;28;20216;-78
2024/01/14 08:29:21;;;;;;;28.13;11.93;;;;;;;-3.47;100.00;97946.00;5073683;28;20240;-78
2024/01/14 08:31:50;;;;;;;32.63;13.03;;;;;;;-3.51;100.00;97952.94;5073717;28;20704;-78
2024/01/14 08:34:16;;;;;;;26.20;12.00;;;;;;;-3.50;100.00;97940.88;5073497;28;20207;-78
2024/01/14 08:36:43;;;;;;;37.77;12.97;;;;;;;-3.44;100.00;97949.38;5073380;28;20707;-78
2024/01/14 08:39:09;;;;;;;29.50;12.97;;;;;;;-3.42;100.00;97949.34;5073680;28;20211;-78
2024/01/14 08:41:37;;;;;;;32.90;12.67;;;;;;;-3.39;100.00;97955.31;5072634;28;20241;-77
2024/01/14 08:44:06;;;;;;;33.33;12.33;;;;;;;-3.35;100.00;97941.47;5070437;28;20237;-78
2024/01/14 08:46:33;;;;;;;29.73;11.97;;;;;;;-3.34;100.00;97937.16;5073412;28;20217;-78
2024/01/14 08:49:00;;;;;;;34.70;13.53;;;;;;;-3.24;100.00;97943.88;5073585;28;20230;-78
2024/01/14 08:51:26;;;;;;;32.60;12.33;;;;;;;-3.04;100.00;97941.75;5073224;28;20693;-78
2024/01/14 08:53:58;;;;;;;31.10;12.00;;;;;;;-3.04;100.00;97931.41;5073218;28;20209;-78
2024/01/14 08:56:25;;;;;;;33.47;12.53;;;;;;;-2.94;100.00;97927.78;5072022;28;20236;-78
2024/01/14 08:58:52;;;;;;;32.57;12.77;;;;;;;-2.88;100.00;97923.31;5071954;28;20207;-78
2024/01/14 09:01:19;;;;;;;28.83;12.07;;;;;;;-2.83;100.00;97925.81;5071437;28;20261;-79
2024/01/14 09:03:45;;;;;;;26.23;13.00;;;;;;;-2.80;100.00;97925.75;5072025;28;20213;-79
2024/01/14 09:06:12;;;;;;;31.13;12.93;;;;;;;-2.74;100.00;97917.88;5071568;28;20213;-80
2024/01/14 09:08:38;;;;;;;31.60;12.30;;;;;;;-2.71;100.00;97915.22;5071901;28;20252;-77
2024/01/14 09:11:05;;;;;;;33.00;13.00;;;;;;;-2.64;100.00;97915.06;5071405;28;20207;-79
2024/01/14 09:13:31;;;;;;;32.03;13.30;;;;;;;-2.65;100.00;97909.91;5072614;28;20219;-80
2024/01/14 09:15:59;;;;;;;31.77;13.83;;;;;;;-2.63;100.00;97909.00;5071376;28;20208;-77
2024/01/14 09:18:26;;;;;;;30.17;13.03;;;;;;;-2.64;100.00;97901.31;5071382;28;20214;-77
2024/01/14 09:20:53;;;;;;;31.10;12.93;;;;;;;-2.58;100.00;97903.75;5071773;28;20222;-79
2024/01/14 09:23:19;;;;;;;32.33;13.83;;;;;;;-2.60;100.00;97897.75;5073104;28;20248;-78
2024/01/14 09:25:46;;;;;;;33.47;14.17;;;;;;;-2.57;100.00;97889.94;5072873;28;20571;-78
2024/01/14 09:28:12;;;;;;;27.73;12.57;;;;;;;-2.64;100.00;97875.44;5072980;28;20233;-78
2024/01/14 09:30:39;;;;;;;33.70;12.63;;;;;;;-2.61;100.00;97883.09;5073220;28;20209;-78
2024/01/14 09:33:07;;;;;;;30.20;12.80;;;;;;;-2.58;100.00;97890.81;5072845;28;20223;-78
2024/01/14 09:35:33;;;;;;;32.63;13.43;;;;;;;-2.49;100.00;97886.28;5073004;28;20228;-78
2024/01/14 09:38:00;;;;;;;30.77;13.23;;;;;;;-2.46;100.00;97890.56;5073970;28;20201;-78
2024/01/14 09:40:26;;;;;;;28.23;12.13;;;;;;;-2.44;100.00;97875.84;5076880;28;20212;-78
2024/01/14 09:42:57;;;;;;;26.27;12.43;;;;;;;-2.41;100.00;97879.22;5076702;28;20229;-78
2024/01/14 09:45:24;;;;;;;31.57;12.57;;;;;;;-2.38;100.00;97873.13;5077170;28;20207;-78
2024/01/14 09:47:51;;;;;;;27.30;11.60;;;;;;;-2.29;100.00;97886.69;5076908;28;20214;-78
2024/01/14 09:50:20;;;;;;;29.67;13.30;;;;;;;-2.16;100.00;97879.47;5077249;28;20219;-78
2024/01/14 09:52:47;;;;;;;29.30;13.40;;;;;;;-2.10;100.00;97869.84;5077376;28;20257;-77
2024/01/14 09:55:14;;;;;;;32.13;12.67;;;;;;;-2.17;100.00;97872.59;5077641;28;20641;-78
2024/01/14 09:57:45;;;;;;;32.23;13.90;;;;;;;-2.16;100.00;97858.78;5077968;28;20205;-78
2024/01/14 10:00:14;;;;;;;30.03;12.87;;;;;;;-2.00;100.00;97847.16;5077556;28;20777;-81
2024/01/14 10:02:40;;;;;;;28.97;14.63;;;;;;;-1.89;100.00;97845.16;5077560;28;20237;-78
2024/01/14 10:05:08;;;;;;;33.40;13.63;;;;;;;-1.90;100.00;97836.53;5077455;28;20695;-78
2024/01/14 10:07:36;;;;;;;27.07;12.70;;;;;;;-1.93;100.00;97830.59;5076874;28;20215;-78
2024/01/14 10:10:07;;;;;;;32.67;14.53;;;;;;;-1.98;100.00;97822.09;5076455;28;20242;-79
2024/01/14 10:12:34;;;;;;;28.33;12.07;;;;;;;-1.95;100.00;97827.19;5075751;28;20630;-77
2024/01/14 10:15:01;;;;;;;29.43;14.23;;;;;;;-1.93;100.00;97820.22;5075497;28;20209;-78
2024/01/14 10:17:28;;;;;;;31.80;13.13;;;;;;;-1.91;100.00;97824.50;5075637;28;20590;-80
2024/01/14 10:19:54;;;;;;;27.20;13.00;;;;;;;-2.00;100.00;97824.72;5075618;28;20632;-80
2024/01/14 10:22:21;;;;;;;31.00;13.10;;;;;;;-2.04;100.00;97823.09;5075180;28;20234;-79
2024/01/14 10:24:53;;;;;;;32.57;14.03;;;;;;;-2.05;100.00;97817.94;5076205;28;20542;-80
2024/01/14 10:27:20;;;;;;;28.83;12.73;;;;;;;-2.01;100.00;97815.28;5075573;28;20210;-79
2024/01/14 10:29:47;;;;;;;30.00;11.93;;;;;;;-1.88;100.00;97815.78;5074646;28;20233;-79
2024/01/14 10:32:14;;;;;;;28.73;12.33;;;;;;;-1.90;100.00;97815.81;5074253;28;20235;-79
2024/01/14 10:34:41;;;;;;;27.00;12.47;;;;;;;-1.84;100.00;97805.31;5075344;28;20218;-79
2024/01/14 10:37:07;;;;;;;33.10;13.33;;;;;;;-1.74;100.00;97785.19;5074334;28;20230;-78
2024/01/14 10:39:35;;;;;;;33.17;14.73;;;;;;;-1.71;100.00;97779.94;5074766;28;20206;-79
2024/01/14 10:42:03;;;;;;;28.07;13.60;;;;;;;-1.59;99.73;97780.44;5074610;28;20226;-79
2024/01/14 10:44:31;;;;;;;34.67;14.90;;;;;;;-1.57;99.48;97772.66;5073486;28;20569;-79
2024/01/14 10:47:02;;;;;;;36.77;14.53;;;;;;;-1.53;99.03;97766.50;5074283;28;20230;-79
2024/01/14 10:49:29;;;;;;;30.57;14.00;;;;;;;-1.46;98.86;97752.47;5073645;28;20720;-79
2024/01/14 10:52:02;;;;;;;31.87;13.30;;;;;;;-1.40;98.10;97750.56;5073594;28;20694;-78
2024/01/14 10:54:35;;;;;;;30.20;12.60;;;;;;;-1.39;97.87;97747.09;5075048;28;20207;-78
2024/01/14 10:57:12;;;;;;;31.30;13.93;;;;;;;-1.36;97.06;97735.78;5074299;28;20249;-77
2024/01/14 10:59:42;;;;;;;32.43;13.83;;;;;;;-1.36;96.40;97722.81;5073733;28;20304;-77
2024/01/14 11:02:16;;;;;;;29.67;13.10;;;;;;;-1.32;95.60;97716.63;5073465;28;20243;-79
2024/01/14 11:04:44;;;;;;;30.17;13.77;;;;;;;-1.29;95.05;97712.22;5074148;28;20217;-79
2024/01/14 11:07:12;;;;;;;32.17;12.63;;;;;;;-1.15;94.33;97709.22;5073928;28;20211;-79